sensor_id;sensor_type;location;lat;lon;timestamp;P1;durP1;ratioP1;P2;durP2;ratioP2
20245;SDS011;10281;54.406;18.556;2023-02-12T00:00:59;2.17;;;1.03;;
20245;SDS011;10281;54.406;18.556;2023-02-12T00:03:26;2.03;;;1.10;;
20245;SDS011;10281;54.406;18.556;2023-02-12T00:05:52;3.47;;;1.00;;
20245;SDS011;10281;54.406;18.556;2023-02-12T00:08:19;1.97;;;0.90;;
20245;SDS011;10281;54.406;18.556;2023-02-12T00:10:46;2.37;;;0.93;;
20245;SDS011;10281;54.406;18.556;2023-02-12T00:13:13;3.10;;;0.90;;
20245;SDS011;10281;54.406;18.556;2023-02-12T00:15:40;1.20;;;1.00;;
20245;SDS011;10281;54.406;18.556;2023-02-12T00:18:07;2.27;;;0.93;;
20245;SDS011;10281;54.406;18.556;2023-02-12T00:20:35;2.83;;;1.10;;
20245;SDS011;10281;54.406;18.556;2023-02-12T00:23:03;4.40;;;1.00;;
20245;SDS011;10281;54.406;18.556;2023-02-12T00:25:30;2.77;;;1.07;;
20245;SDS011;10281;54.406;18.556;2023-02-12T00:27:57;2.30;;;0.90;;
20245;SDS011;10281;54.406;18.556;2023-02-12T00:30:24;1.97;;;1.20;;
20245;SDS011;10281;54.406;18.556;2023-02-12T00:32:51;3.37;;;1.30;;
20245;SDS011;10281;54.406;18.556;2023-02-12T00:35:17;1.93;;;0.87;;
20245;SDS011;10281;54.406;18.556;2023-02-12T00:37:44;2.17;;;1.10;;
20245;SDS011;10281;54.406;18.556;2023-02-12T00:40:11;2.17;;;1.20;;
20245;SDS011;10281;54.406;18.556;2023-02-12T00:42:38;2.23;;;1.20;;
20245;SDS011;10281;54.406;18.556;2023-02-12T00:45:05;2.33;;;1.10;;
20245;SDS011;10281;54.406;18.556;2023-02-12T00:47:32;2.33;;;1.10;;
20245;SDS011;10281;54.406;18.556;2023-02-12T00:49:59;3.03;;;0.90;;
20245;SDS011;10281;54.406;18.556;2023-02-12T00:52:25;2.20;;;1.10;;
20245;SDS011;10281;54.406;18.556;2023-02-12T00:54:52;1.57;;;1.10;;
20245;SDS011;10281;54.406;18.556;2023-02-12T00:57:18;2.50;;;1.20;;
20245;SDS011;10281;54.406;18.556;2023-02-12T00:59:45;1.40;;;0.93;;
20245;SDS011;10281;54.406;18.556;2023-02-12T01:02:12;2.30;;;1.10;;
20245;SDS011;10281;54.406;18.556;2023-02-12T01:04:39;2.17;;;1.13;;
20245;SDS011;10281;54.406;18.556;2023-02-12T01:07:05;2.90;;;1.50;;
20245;SDS011;10281;54.406;18.556;2023-02-12T01:09:32;3.83;;;1.10;;
20245;SDS011;10281;54.406;18.556;2023-02-12T01:11:59;1.50;;;1.07;;
20245;SDS011;10281;54.406;18.556;2023-02-12T01:14:25;2.67;;;1.60;;
20245;SDS011;10281;54.406;18.556;2023-02-12T01:16:52;1.67;;;1.03;;
20245;SDS011;10281;54.406;18.556;2023-02-12T01:19:19;1.60;;;1.10;;
20245;SDS011;10281;54.406;18.556;2023-02-12T01:21:45;3.60;;;1.20;;
20245;SDS011;10281;54.406;18.556;2023-02-12T01:24:12;1.10;;;0.97;;
20245;SDS011;10281;54.406;18.556;2023-02-12T01:26:38;1.50;;;1.10;;
20245;SDS011;10281;54.406;18.556;2023-02-12T01:29:07;3.40;;;1.17;;
20245;SDS011;10281;54.406;18.556;2023-02-12T01:31:35;1.60;;;1.20;;
20245;SDS011;10281;54.406;18.556;2023-02-12T01:34:05;4.30;;;1.53;;
20245;SDS011;10281;54.406;18.556;2023-02-12T01:36:33;2.47;;;1.20;;
20245;SDS011;10281;54.406;18.556;2023-02-12T01:39:00;1.50;;;1.10;;
20245;SDS011;10281;54.406;18.556;2023-02-12T01:41:31;2.13;;;1.10;;
20245;SDS011;10281;54.406;18.556;2023-02-12T01:44:04;1.90;;;1.00;;
20245;SDS011;10281;54.406;18.556;2023-02-12T01:46:55;4.03;;;1.13;;
20245;SDS011;10281;54.406;18.556;2023-02-12T01:49:30;3.73;;;1.07;;
20245;SDS011;10281;54.406;18.556;2023-02-12T01:52:05;3.77;;;1.33;;
20245;SDS011;10281;54.406;18.556;2023-02-12T01:54:38;2.80;;;1.10;;
20245;SDS011;10281;54.406;18.556;2023-02-12T01:57:07;3.50;;;1.40;;
20245;SDS011;10281;54.406;18.556;2023-02-12T01:59:35;2.90;;;1.20;;
20245;SDS011;10281;54.406;18.556;2023-02-12T02:02:03;2.60;;;1.40;;
20245;SDS011;10281;54.406;18.556;2023-02-12T02:04:32;2.00;;;1.13;;
20245;SDS011;10281;54.406;18.556;2023-02-12T02:07:01;3.60;;;0.97;;
20245;SDS011;10281;54.406;18.556;2023-02-12T02:09:30;2.70;;;1.30;;
20245;SDS011;10281;54.406;18.556;2023-02-12T02:11:59;2.03;;;1.10;;
20245;SDS011;10281;54.406;18.556;2023-02-12T02:14:32;4.17;;;1.30;;
20245;SDS011;10281;54.406;18.556;2023-02-12T02:17:06;2.30;;;1.20;;
20245;SDS011;10281;54.406;18.556;2023-02-12T02:22:47;1.87;;;1.20;;
20245;SDS011;10281;54.406;18.556;2023-02-12T02:31:00;3.43;;;1.20;;
20245;SDS011;10281;54.406;18.556;2023-02-12T02:33:35;1.57;;;1.00;;
20245;SDS011;10281;54.406;18.556;2023-02-12T02:38:56;4.03;;;1.40;;
20245;SDS011;10281;54.406;18.556;2023-02-12T02:41:30;3.33;;;1.20;;
20245;SDS011;10281;54.406;18.556;2023-02-12T02:44:08;2.30;;;1.20;;
20245;SDS011;10281;54.406;18.556;2023-02-12T02:46:40;1.97;;;1.20;;
20245;SDS011;10281;54.406;18.556;2023-02-12T02:49:11;2.07;;;1.10;;
20245;SDS011;10281;54.406;18.556;2023-02-12T02:51:41;2.73;;;1.20;;
20245;SDS011;10281;54.406;18.556;2023-02-12T02:54:12;3.33;;;1.03;;
20245;SDS011;10281;54.406;18.556;2023-02-12T02:56:43;3.03;;;1.30;;
20245;SDS011;10281;54.406;18.556;2023-02-12T02:59:16;4.77;;;1.37;;
20245;SDS011;10281;54.406;18.556;2023-02-12T03:01:49;2.47;;;1.10;;
20245;SDS011;10281;54.406;18.556;2023-02-12T03:04:19;3.03;;;1.23;;
20245;SDS011;10281;54.406;18.556;2023-02-12T03:06:53;5.77;;;1.40;;
20245;SDS011;10281;54.406;18.556;2023-02-12T03:09:22;4.00;;;1.33;;
20245;SDS011;10281;54.406;18.556;2023-02-12T03:12:05;1.50;;;1.20;;
20245;SDS011;10281;54.406;18.556;2023-02-12T03:14:35;3.93;;;1.50;;
20245;SDS011;10281;54.406;18.556;2023-02-12T03:17:09;2.70;;;1.10;;
20245;SDS011;10281;54.406;18.556;2023-02-12T03:19:45;3.60;;;1.47;;
20245;SDS011;10281;54.406;18.556;2023-02-12T03:22:16;3.10;;;1.37;;
20245;SDS011;10281;54.406;18.556;2023-02-12T03:24:47;4.03;;;1.70;;
20245;SDS011;10281;54.406;18.556;2023-02-12T03:27:24;5.87;;;1.93;;
20245;SDS011;10281;54.406;18.556;2023-02-12T03:29:54;4.07;;;2.00;;
20245;SDS011;10281;54.406;18.556;2023-02-12T03:32:28;5.27;;;2.27;;
20245;SDS011;10281;54.406;18.556;2023-02-12T03:37:40;4.10;;;1.27;;
20245;SDS011;10281;54.406;18.556;2023-02-12T03:40:21;3.60;;;1.80;;
20245;SDS011;10281;54.406;18.556;2023-02-12T03:42:55;3.47;;;1.53;;
20245;SDS011;10281;54.406;18.556;2023-02-12T03:46:33;3.07;;;1.90;;
20245;SDS011;10281;54.406;18.556;2023-02-12T03:48:21;4.67;;;1.90;;
20245;SDS011;10281;54.406;18.556;2023-02-12T03:50:56;2.57;;;1.93;;
20245;SDS011;10281;54.406;18.556;2023-02-12T03:53:24;4.87;;;1.93;;
20245;SDS011;10281;54.406;18.556;2023-02-12T03:55:53;4.17;;;1.90;;
20245;SDS011;10281;54.406;18.556;2023-02-12T03:58:24;3.77;;;1.83;;
20245;SDS011;10281;54.406;18.556;2023-02-12T04:00:54;4.23;;;2.30;;
20245;SDS011;10281;54.406;18.556;2023-02-12T04:03:22;5.20;;;1.67;;
20245;SDS011;10281;54.406;18.556;2023-02-12T04:05:49;3.70;;;1.83;;
20245;SDS011;10281;54.406;18.556;2023-02-12T04:08:16;5.73;;;1.93;;
20245;SDS011;10281;54.406;18.556;2023-02-12T04:13:41;5.63;;;2.60;;
20245;SDS011;10281;54.406;18.556;2023-02-12T04:16:19;4.93;;;2.40;;
20245;SDS011;10281;54.406;18.556;2023-02-12T04:18:47;3.60;;;2.17;;
20245;SDS011;10281;54.406;18.556;2023-02-12T04:21:19;3.40;;;2.20;;
20245;SDS011;10281;54.406;18.556;2023-02-12T04:29:23;3.77;;;2.27;;
20245;SDS011;10281;54.406;18.556;2023-02-12T04:32:23;5.27;;;2.10;;
20245;SDS011;10281;54.406;18.556;2023-02-12T04:34:55;4.23;;;2.63;;
20245;SDS011;10281;54.406;18.556;2023-02-12T04:37:40;3.00;;;2.00;;
20245;SDS011;10281;54.406;18.556;2023-02-12T04:40:13;7.60;;;3.97;;
20245;SDS011;10281;54.406;18.556;2023-02-12T04:42:44;3.17;;;2.10;;
20245;SDS011;10281;54.406;18.556;2023-02-12T04:45:19;6.53;;;2.37;;
20245;SDS011;10281;54.406;18.556;2023-02-12T04:47:47;3.63;;;2.30;;
20245;SDS011;10281;54.406;18.556;2023-02-12T04:50:14;6.20;;;2.67;;
20245;SDS011;10281;54.406;18.556;2023-02-12T04:52:41;3.90;;;2.63;;
20245;SDS011;10281;54.406;18.556;2023-02-12T04:55:07;4.40;;;3.17;;
20245;SDS011;10281;54.406;18.556;2023-02-12T04:57:34;4.50;;;2.43;;
20245;SDS011;10281;54.406;18.556;2023-02-12T05:00:01;4.63;;;2.30;;
20245;SDS011;10281;54.406;18.556;2023-02-12T05:02:31;5.63;;;2.50;;
20245;SDS011;10281;54.406;18.556;2023-02-12T05:04:59;9.63;;;3.13;;
20245;SDS011;10281;54.406;18.556;2023-02-12T05:07:26;4.70;;;2.43;;
20245;SDS011;10281;54.406;18.556;2023-02-12T05:09:53;4.23;;;2.60;;
20245;SDS011;10281;54.406;18.556;2023-02-12T05:12:20;5.00;;;2.80;;
20245;SDS011;10281;54.406;18.556;2023-02-12T05:14:46;6.23;;;3.27;;
20245;SDS011;10281;54.406;18.556;2023-02-12T05:17:13;4.13;;;2.67;;
20245;SDS011;10281;54.406;18.556;2023-02-12T05:19:40;5.93;;;3.10;;
20245;SDS011;10281;54.406;18.556;2023-02-12T05:22:07;6.37;;;2.87;;
20245;SDS011;10281;54.406;18.556;2023-02-12T05:24:33;6.70;;;3.30;;
20245;SDS011;10281;54.406;18.556;2023-02-12T05:27:00;7.00;;;2.97;;
20245;SDS011;10281;54.406;18.556;2023-02-12T05:29:26;6.77;;;3.00;;
20245;SDS011;10281;54.406;18.556;2023-02-12T05:31:53;5.57;;;3.37;;
20245;SDS011;10281;54.406;18.556;2023-02-12T05:34:20;6.43;;;3.27;;
20245;SDS011;10281;54.406;18.556;2023-02-12T05:36:46;5.47;;;3.00;;
20245;SDS011;10281;54.406;18.556;2023-02-12T05:39:13;5.77;;;3.20;;
20245;SDS011;10281;54.406;18.556;2023-02-12T05:41:40;4.37;;;3.37;;
20245;SDS011;10281;54.406;18.556;2023-02-12T05:44:06;6.33;;;4.03;;
20245;SDS011;10281;54.406;18.556;2023-02-12T05:46:33;10.93;;;4.37;;
20245;SDS011;10281;54.406;18.556;2023-02-12T05:49:00;9.67;;;4.13;;
20245;SDS011;10281;54.406;18.556;2023-02-12T05:51:27;9.07;;;4.70;;
20245;SDS011;10281;54.406;18.556;2023-02-12T05:53:57;10.30;;;4.87;;
20245;SDS011;10281;54.406;18.556;2023-02-12T05:56:27;9.97;;;4.40;;
20245;SDS011;10281;54.406;18.556;2023-02-12T05:58:58;9.20;;;4.20;;
20245;SDS011;10281;54.406;18.556;2023-02-12T06:01:29;6.73;;;4.23;;
20245;SDS011;10281;54.406;18.556;2023-02-12T06:03:57;9.33;;;4.40;;
20245;SDS011;10281;54.406;18.556;2023-02-12T06:06:26;7.60;;;4.83;;
20245;SDS011;10281;54.406;18.556;2023-02-12T06:08:54;8.70;;;4.97;;
20245;SDS011;10281;54.406;18.556;2023-02-12T06:11:21;7.80;;;4.73;;
20245;SDS011;10281;54.406;18.556;2023-02-12T06:13:48;10.67;;;5.37;;
20245;SDS011;10281;54.406;18.556;2023-02-12T06:16:17;9.10;;;5.37;;
20245;SDS011;10281;54.406;18.556;2023-02-12T06:18:47;10.30;;;5.67;;
20245;SDS011;10281;54.406;18.556;2023-02-12T06:21:15;10.00;;;6.03;;
20245;SDS011;10281;54.406;18.556;2023-02-12T06:23:43;11.90;;;6.40;;
20245;SDS011;10281;54.406;18.556;2023-02-12T06:26:10;12.23;;;5.90;;
20245;SDS011;10281;54.406;18.556;2023-02-12T06:28:37;12.60;;;5.87;;
20245;SDS011;10281;54.406;18.556;2023-02-12T06:31:04;12.80;;;6.73;;
20245;SDS011;10281;54.406;18.556;2023-02-12T06:33:31;9.90;;;6.00;;
20245;SDS011;10281;54.406;18.556;2023-02-12T06:36:01;10.17;;;5.87;;
20245;SDS011;10281;54.406;18.556;2023-02-12T06:38:34;11.83;;;6.17;;
20245;SDS011;10281;54.406;18.556;2023-02-12T06:41:01;8.87;;;5.60;;
20245;SDS011;10281;54.406;18.556;2023-02-12T06:43:28;15.00;;;6.17;;
20245;SDS011;10281;54.406;18.556;2023-02-12T06:45:55;11.73;;;6.13;;
20245;SDS011;10281;54.406;18.556;2023-02-12T06:48:23;11.40;;;5.40;;
20245;SDS011;10281;54.406;18.556;2023-02-12T06:50:50;9.73;;;5.33;;
20245;SDS011;10281;54.406;18.556;2023-02-12T06:53:17;9.93;;;5.63;;
20245;SDS011;10281;54.406;18.556;2023-02-12T06:55:44;13.27;;;6.03;;
20245;SDS011;10281;54.406;18.556;2023-02-12T06:58:10;11.03;;;5.80;;
20245;SDS011;10281;54.406;18.556;2023-02-12T07:00:37;10.13;;;6.13;;
20245;SDS011;10281;54.406;18.556;2023-02-12T07:03:04;12.20;;;6.23;;
20245;SDS011;10281;54.406;18.556;2023-02-12T07:05:30;14.23;;;7.70;;
20245;SDS011;10281;54.406;18.556;2023-02-12T07:07:57;14.30;;;7.97;;
20245;SDS011;10281;54.406;18.556;2023-02-12T07:10:24;16.07;;;9.27;;
20245;SDS011;10281;54.406;18.556;2023-02-12T07:12:50;12.80;;;8.27;;
20245;SDS011;10281;54.406;18.556;2023-02-12T07:15:18;15.53;;;9.00;;
20245;SDS011;10281;54.406;18.556;2023-02-12T07:17:44;13.00;;;7.43;;
20245;SDS011;10281;54.406;18.556;2023-02-12T07:20:11;13.50;;;8.40;;
20245;SDS011;10281;54.406;18.556;2023-02-12T07:22:38;13.77;;;8.23;;
20245;SDS011;10281;54.406;18.556;2023-02-12T07:25:05;13.17;;;6.93;;
20245;SDS011;10281;54.406;18.556;2023-02-12T07:27:33;10.30;;;6.40;;
20245;SDS011;10281;54.406;18.556;2023-02-12T07:30:02;13.97;;;7.47;;
20245;SDS011;10281;54.406;18.556;2023-02-12T07:32:31;14.60;;;7.40;;
20245;SDS011;10281;54.406;18.556;2023-02-12T07:34:59;12.50;;;7.13;;
20245;SDS011;10281;54.406;18.556;2023-02-12T07:37:26;11.47;;;6.27;;
20245;SDS011;10281;54.406;18.556;2023-02-12T07:39:53;9.77;;;5.70;;
20245;SDS011;10281;54.406;18.556;2023-02-12T07:42:19;10.53;;;5.60;;
20245;SDS011;10281;54.406;18.556;2023-02-12T07:44:46;9.80;;;5.73;;
20245;SDS011;10281;54.406;18.556;2023-02-12T07:47:14;12.83;;;5.40;;
20245;SDS011;10281;54.406;18.556;2023-02-12T07:49:41;10.03;;;4.70;;
20245;SDS011;10281;54.406;18.556;2023-02-12T07:52:08;8.90;;;4.83;;
20245;SDS011;10281;54.406;18.556;2023-02-12T07:54:35;8.87;;;5.17;;
20245;SDS011;10281;54.406;18.556;2023-02-12T07:57:02;9.10;;;4.43;;
20245;SDS011;10281;54.406;18.556;2023-02-12T07:59:28;7.40;;;4.50;;
20245;SDS011;10281;54.406;18.556;2023-02-12T08:01:55;6.80;;;3.40;;
20245;SDS011;10281;54.406;18.556;2023-02-12T08:04:24;5.37;;;3.13;;
20245;SDS011;10281;54.406;18.556;2023-02-12T08:06:51;5.43;;;3.37;;
20245;SDS011;10281;54.406;18.556;2023-02-12T08:11:57;5.07;;;3.20;;
20245;SDS011;10281;54.406;18.556;2023-02-12T08:14:25;7.17;;;4.30;;
20245;SDS011;10281;54.406;18.556;2023-02-12T08:16:52;8.00;;;4.97;;
20245;SDS011;10281;54.406;18.556;2023-02-12T08:19:19;9.38;;;5.28;;
20245;SDS011;10281;54.406;18.556;2023-02-12T08:21:48;6.53;;;4.17;;
20245;SDS011;10281;54.406;18.556;2023-02-12T08:24:15;11.80;;;5.17;;
20245;SDS011;10281;54.406;18.556;2023-02-12T08:26:42;9.67;;;4.33;;
20245;SDS011;10281;54.406;18.556;2023-02-12T08:29:11;9.60;;;5.30;;
20245;SDS011;10281;54.406;18.556;2023-02-12T08:31:41;9.67;;;6.30;;
20245;SDS011;10281;54.406;18.556;2023-02-12T08:34:15;7.63;;;4.40;;
20245;SDS011;10281;54.406;18.556;2023-02-12T08:36:43;7.20;;;4.67;;
20245;SDS011;10281;54.406;18.556;2023-02-12T08:39:10;9.07;;;4.87;;
20245;SDS011;10281;54.406;18.556;2023-02-12T08:41:37;10.63;;;4.93;;
20245;SDS011;10281;54.406;18.556;2023-02-12T08:44:06;10.93;;;5.13;;
20245;SDS011;10281;54.406;18.556;2023-02-12T08:46:34;9.67;;;4.80;;
20245;SDS011;10281;54.406;18.556;2023-02-12T08:49:03;7.33;;;4.90;;
20245;SDS011;10281;54.406;18.556;2023-02-12T08:51:35;7.47;;;4.80;;
20245;SDS011;10281;54.406;18.556;2023-02-12T08:54:04;5.37;;;3.87;;
20245;SDS011;10281;54.406;18.556;2023-02-12T08:56:33;13.37;;;9.97;;
20245;SDS011;10281;54.406;18.556;2023-02-12T08:59:01;13.90;;;11.00;;
20245;SDS011;10281;54.406;18.556;2023-02-12T09:01:30;22.10;;;15.67;;
20245;SDS011;10281;54.406;18.556;2023-02-12T09:03:58;12.00;;;6.30;;
20245;SDS011;10281;54.406;18.556;2023-02-12T09:06:25;12.23;;;8.50;;
20245;SDS011;10281;54.406;18.556;2023-02-12T09:08:53;10.60;;;6.20;;
20245;SDS011;10281;54.406;18.556;2023-02-12T09:11:22;9.50;;;5.23;;
20245;SDS011;10281;54.406;18.556;2023-02-12T09:13:56;7.27;;;3.90;;
20245;SDS011;10281;54.406;18.556;2023-02-12T09:16:25;7.20;;;3.80;;
20245;SDS011;10281;54.406;18.556;2023-02-12T09:18:54;7.87;;;4.43;;
20245;SDS011;10281;54.406;18.556;2023-02-12T09:21:20;10.73;;;5.17;;
20245;SDS011;10281;54.406;18.556;2023-02-12T09:23:48;6.00;;;3.90;;
20245;SDS011;10281;54.406;18.556;2023-02-12T09:26:16;7.23;;;4.00;;
20245;SDS011;10281;54.406;18.556;2023-02-12T09:28:46;8.90;;;4.53;;
20245;SDS011;10281;54.406;18.556;2023-02-12T09:31:18;6.90;;;4.27;;
20245;SDS011;10281;54.406;18.556;2023-02-12T09:33:51;11.47;;;4.10;;
20245;SDS011;10281;54.406;18.556;2023-02-12T09:36:18;8.80;;;4.73;;
20245;SDS011;10281;54.406;18.556;2023-02-12T09:38:46;6.43;;;4.40;;
20245;SDS011;10281;54.406;18.556;2023-02-12T09:41:24;7.80;;;3.93;;
20245;SDS011;10281;54.406;18.556;2023-02-12T09:44:05;7.33;;;3.90;;
20245;SDS011;10281;54.406;18.556;2023-02-12T09:46:52;7.57;;;4.10;;
20245;SDS011;10281;54.406;18.556;2023-02-12T09:50:29;7.00;;;3.60;;
20245;SDS011;10281;54.406;18.556;2023-02-12T09:52:23;6.57;;;4.03;;
20245;SDS011;10281;54.406;18.556;2023-02-12T09:54:52;8.20;;;4.37;;
20245;SDS011;10281;54.406;18.556;2023-02-12T09:57:22;7.43;;;4.27;;
20245;SDS011;10281;54.406;18.556;2023-02-12T09:59:55;9.77;;;4.63;;
20245;SDS011;10281;54.406;18.556;2023-02-12T10:02:24;7.23;;;4.10;;
20245;SDS011;10281;54.406;18.556;2023-02-12T10:04:51;6.50;;;3.70;;
20245;SDS011;10281;54.406;18.556;2023-02-12T10:12:58;8.83;;;4.63;;
20245;SDS011;10281;54.406;18.556;2023-02-12T10:15:32;10.03;;;4.33;;
20245;SDS011;10281;54.406;18.556;2023-02-12T10:21:00;8.10;;;4.27;;
20245;SDS011;10281;54.406;18.556;2023-02-12T10:23:37;11.07;;;6.20;;
20245;SDS011;10281;54.406;18.556;2023-02-12T10:26:12;6.87;;;4.43;;
20245;SDS011;10281;54.406;18.556;2023-02-12T10:28:42;10.37;;;5.13;;
20245;SDS011;10281;54.406;18.556;2023-02-12T10:31:28;9.47;;;4.50;;
20245;SDS011;10281;54.406;18.556;2023-02-12T10:33:56;9.93;;;4.93;;
20245;SDS011;10281;54.406;18.556;2023-02-12T10:41:55;7.53;;;4.60;;
20245;SDS011;10281;54.406;18.556;2023-02-12T10:44:24;7.73;;;4.80;;
20245;SDS011;10281;54.406;18.556;2023-02-12T10:46:51;9.70;;;4.73;;
20245;SDS011;10281;54.406;18.556;2023-02-12T10:49:18;9.83;;;5.27;;
20245;SDS011;10281;54.406;18.556;2023-02-12T10:54:46;7.63;;;4.90;;
20245;SDS011;10281;54.406;18.556;2023-02-12T10:57:18;8.87;;;4.70;;
20245;SDS011;10281;54.406;18.556;2023-02-12T10:59:48;7.47;;;4.50;;
20245;SDS011;10281;54.406;18.556;2023-02-12T11:02:22;9.37;;;5.03;;
20245;SDS011;10281;54.406;18.556;2023-02-12T11:04:56;43.03;;;22.20;;
20245;SDS011;10281;54.406;18.556;2023-02-12T11:07:25;9.20;;;5.30;;
20245;SDS011;10281;54.406;18.556;2023-02-12T11:09:54;8.27;;;5.63;;
20245;SDS011;10281;54.406;18.556;2023-02-12T11:12:25;10.63;;;5.70;;
20245;SDS011;10281;54.406;18.556;2023-02-12T11:14:54;7.50;;;4.60;;
20245;SDS011;10281;54.406;18.556;2023-02-12T11:17:25;11.93;;;5.80;;
20245;SDS011;10281;54.406;18.556;2023-02-12T11:20:00;13.17;;;7.37;;
20245;SDS011;10281;54.406;18.556;2023-02-12T11:22:49;11.10;;;6.87;;
20245;SDS011;10281;54.406;18.556;2023-02-12T11:25:20;11.60;;;6.03;;
20245;SDS011;10281;54.406;18.556;2023-02-12T11:28:05;11.43;;;6.23;;
20245;SDS011;10281;54.406;18.556;2023-02-12T11:30:49;12.63;;;7.33;;
20245;SDS011;10281;54.406;18.556;2023-02-12T11:33:25;10.90;;;5.97;;
20245;SDS011;10281;54.406;18.556;2023-02-12T11:35:57;11.60;;;7.03;;
20245;SDS011;10281;54.406;18.556;2023-02-12T11:38:27;11.33;;;6.60;;
20245;SDS011;10281;54.406;18.556;2023-02-12T11:40:59;11.47;;;6.90;;
20245;SDS011;10281;54.406;18.556;2023-02-12T11:43:29;10.90;;;6.90;;
20245;SDS011;10281;54.406;18.556;2023-02-12T11:45:58;8.97;;;5.77;;
20245;SDS011;10281;54.406;18.556;2023-02-12T11:48:29;11.23;;;6.57;;
20245;SDS011;10281;54.406;18.556;2023-02-12T11:50:59;10.10;;;6.00;;
20245;SDS011;10281;54.406;18.556;2023-02-12T11:53:32;12.37;;;7.40;;
20245;SDS011;10281;54.406;18.556;2023-02-12T11:56:04;10.03;;;6.33;;
20245;SDS011;10281;54.406;18.556;2023-02-12T11:58:33;8.83;;;5.93;;
20245;SDS011;10281;54.406;18.556;2023-02-12T12:03:40;11.77;;;6.13;;
20245;SDS011;10281;54.406;18.556;2023-02-12T12:06:15;9.63;;;6.23;;
20245;SDS011;10281;54.406;18.556;2023-02-12T12:09:04;9.80;;;5.47;;
20245;SDS011;10281;54.406;18.556;2023-02-12T12:11:39;9.53;;;5.93;;
20245;SDS011;10281;54.406;18.556;2023-02-12T12:14:16;11.60;;;6.00;;
20245;SDS011;10281;54.406;18.556;2023-02-12T12:16:55;11.20;;;6.07;;
20245;SDS011;10281;54.406;18.556;2023-02-12T12:19:45;12.43;;;6.43;;
20245;SDS011;10281;54.406;18.556;2023-02-12T12:22:51;14.03;;;6.47;;
20245;SDS011;10281;54.406;18.556;2023-02-12T12:27:54;13.63;;;6.00;;
20245;SDS011;10281;54.406;18.556;2023-02-12T12:30:36;13.90;;;6.83;;
20245;SDS011;10281;54.406;18.556;2023-02-12T12:33:23;14.67;;;6.87;;
20245;SDS011;10281;54.406;18.556;2023-02-12T12:39:32;15.13;;;6.80;;
20245;SDS011;10281;54.406;18.556;2023-02-12T12:41:50;15.80;;;7.67;;
20245;SDS011;10281;54.406;18.556;2023-02-12T12:44:26;14.20;;;6.87;;
20245;SDS011;10281;54.406;18.556;2023-02-12T12:46:56;11.87;;;6.70;;
20245;SDS011;10281;54.406;18.556;2023-02-12T12:52:24;12.27;;;5.90;;
20245;SDS011;10281;54.406;18.556;2023-02-12T12:55:11;14.80;;;6.60;;
20245;SDS011;10281;54.406;18.556;2023-02-12T12:57:50;11.37;;;6.40;;
20245;SDS011;10281;54.406;18.556;2023-02-12T13:00:23;13.93;;;6.83;;
20245;SDS011;10281;54.406;18.556;2023-02-12T13:03:00;13.17;;;6.87;;
20245;SDS011;10281;54.406;18.556;2023-02-12T13:05:53;15.67;;;6.93;;
20245;SDS011;10281;54.406;18.556;2023-02-12T13:08:44;13.37;;;6.63;;
20245;SDS011;10281;54.406;18.556;2023-02-12T13:13:56;13.87;;;6.13;;
20245;SDS011;10281;54.406;18.556;2023-02-12T13:16:29;13.93;;;7.70;;
20245;SDS011;10281;54.406;18.556;2023-02-12T13:19:37;13.03;;;7.23;;
20245;SDS011;10281;54.406;18.556;2023-02-12T13:21:55;12.60;;;6.20;;
20245;SDS011;10281;54.406;18.556;2023-02-12T13:24:29;10.67;;;5.77;;
20245;SDS011;10281;54.406;18.556;2023-02-12T13:27:15;9.70;;;5.67;;
20245;SDS011;10281;54.406;18.556;2023-02-12T13:29:48;8.90;;;5.30;;
20245;SDS011;10281;54.406;18.556;2023-02-12T13:34:53;9.63;;;5.23;;
20245;SDS011;10281;54.406;18.556;2023-02-12T13:37:35;9.47;;;5.40;;
20245;SDS011;10281;54.406;18.556;2023-02-12T13:40:00;9.13;;;5.80;;
20245;SDS011;10281;54.406;18.556;2023-02-12T13:42:39;11.07;;;6.57;;
20245;SDS011;10281;54.406;18.556;2023-02-12T13:48:24;8.60;;;5.03;;
20245;SDS011;10281;54.406;18.556;2023-02-12T13:51:01;7.80;;;5.43;;
20245;SDS011;10281;54.406;18.556;2023-02-12T13:54:58;6.83;;;4.70;;
20245;SDS011;10281;54.406;18.556;2023-02-12T13:56:40;9.67;;;5.43;;
20245;SDS011;10281;54.406;18.556;2023-02-12T14:01:47;10.27;;;6.03;;
20245;SDS011;10281;54.406;18.556;2023-02-12T14:04:24;10.80;;;6.13;;
20245;SDS011;10281;54.406;18.556;2023-02-12T14:06:57;10.80;;;5.53;;
20245;SDS011;10281;54.406;18.556;2023-02-12T14:09:30;12.30;;;5.90;;
20245;SDS011;10281;54.406;18.556;2023-02-12T14:11:59;10.70;;;4.97;;
20245;SDS011;10281;54.406;18.556;2023-02-12T14:14:30;10.50;;;5.77;;
20245;SDS011;10281;54.406;18.556;2023-02-12T14:19:41;9.67;;;5.20;;
20245;SDS011;10281;54.406;18.556;2023-02-12T14:22:13;9.23;;;5.53;;
20245;SDS011;10281;54.406;18.556;2023-02-12T14:27:54;8.83;;;5.27;;
20245;SDS011;10281;54.406;18.556;2023-02-12T14:30:35;8.87;;;5.40;;
20245;SDS011;10281;54.406;18.556;2023-02-12T14:33:10;10.83;;;4.77;;
20245;SDS011;10281;54.406;18.556;2023-02-12T14:35:44;8.73;;;5.90;;
20245;SDS011;10281;54.406;18.556;2023-02-12T14:41:30;9.60;;;5.80;;
20245;SDS011;10281;54.406;18.556;2023-02-12T14:46:56;6.67;;;4.80;;
20245;SDS011;10281;54.406;18.556;2023-02-12T14:49:27;9.03;;;5.53;;
20245;SDS011;10281;54.406;18.556;2023-02-12T14:52:14;9.73;;;5.80;;
20245;SDS011;10281;54.406;18.556;2023-02-12T14:54:44;7.63;;;4.83;;
20245;SDS011;10281;54.406;18.556;2023-02-12T14:57:33;10.23;;;6.17;;
20245;SDS011;10281;54.406;18.556;2023-02-12T15:00:05;9.77;;;6.63;;
20245;SDS011;10281;54.406;18.556;2023-02-12T15:02:58;12.57;;;5.97;;
20245;SDS011;10281;54.406;18.556;2023-02-12T15:05:35;8.43;;;5.23;;
20245;SDS011;10281;54.406;18.556;2023-02-12T15:08:06;10.17;;;5.80;;
20245;SDS011;10281;54.406;18.556;2023-02-12T15:10:41;8.93;;;5.70;;
20245;SDS011;10281;54.406;18.556;2023-02-12T15:13:16;11.00;;;5.63;;
20245;SDS011;10281;54.406;18.556;2023-02-12T15:15:51;8.93;;;5.63;;
20245;SDS011;10281;54.406;18.556;2023-02-12T15:18:23;7.70;;;5.10;;
20245;SDS011;10281;54.406;18.556;2023-02-12T15:20:55;10.53;;;6.20;;
20245;SDS011;10281;54.406;18.556;2023-02-12T15:26:19;14.23;;;5.90;;
20245;SDS011;10281;54.406;18.556;2023-02-12T15:28:53;11.07;;;5.80;;
20245;SDS011;10281;54.406;18.556;2023-02-12T15:31:23;10.27;;;7.03;;
20245;SDS011;10281;54.406;18.556;2023-02-12T15:33:52;9.13;;;6.03;;
20245;SDS011;10281;54.406;18.556;2023-02-12T15:36:22;9.00;;;6.40;;
20245;SDS011;10281;54.406;18.556;2023-02-12T15:38:52;11.80;;;6.70;;
20245;SDS011;10281;54.406;18.556;2023-02-12T15:41:38;10.13;;;6.60;;
20245;SDS011;10281;54.406;18.556;2023-02-12T15:49:23;8.93;;;5.50;;
20245;SDS011;10281;54.406;18.556;2023-02-12T15:51:51;10.47;;;6.13;;
20245;SDS011;10281;54.406;18.556;2023-02-12T15:54:18;9.07;;;6.00;;
20245;SDS011;10281;54.406;18.556;2023-02-12T15:56:45;7.57;;;5.97;;
20245;SDS011;10281;54.406;18.556;2023-02-12T15:59:17;8.27;;;5.83;;
20245;SDS011;10281;54.406;18.556;2023-02-12T16:01:55;9.83;;;5.90;;
20245;SDS011;10281;54.406;18.556;2023-02-12T16:04:25;14.63;;;10.17;;
20245;SDS011;10281;54.406;18.556;2023-02-12T16:06:58;10.40;;;7.03;;
20245;SDS011;10281;54.406;18.556;2023-02-12T16:09:29;10.57;;;7.73;;
20245;SDS011;10281;54.406;18.556;2023-02-12T16:11:59;8.57;;;5.90;;
20245;SDS011;10281;54.406;18.556;2023-02-12T16:14:37;7.97;;;5.67;;
20245;SDS011;10281;54.406;18.556;2023-02-12T16:17:17;8.10;;;5.70;;
20245;SDS011;10281;54.406;18.556;2023-02-12T16:20:00;6.87;;;5.57;;